Terminal Aerodrome Forecast
Issued by NWS

Home | Current Version | Previous Version | Text Only | Print | Product List | Glossary On
Versions: 1 2 3 4 5 6 7 8 9 10 11 12 13 14 15 16 17 18 19 20 21
823
FTUS43 KDVN 222320
TAFBRL
TAF
KBRL 222320Z 2300/2324 20009KT P6SM BKN120
     FM230200 24007KT P6SM OVC080
     FM231500 29005KT P6SM SCT030 BKN040 PROB30 2318/2324 5SM SHRA
      BR OVC030=

USA.gov is the U.S. government's official web portal to all federal, state and local government web resources and services.